Time;durP1;ratioP1;P1;durP2;ratioP2;P2;SDS_P1;SDS_P2;PMS_P1;PMS_P2;Temp;Humidity;BMP_temperature;BMP_pressure;BME280_temperature;BME280_humidity;BME280_pressure;Samples;Min_cycle;Max_cycle;Signal;HPM_P1;HPM_P2
2024/04/17 00:02:08;;;;;;;0.20;0.20;;;;;;;;;;5328954;26;20276;-85
2024/04/17 00:04:34;;;;;;;0.10;0.10;;;;;;;;;;5325017;26;20388;-84
2024/04/17 00:07:01;;;;;;;0.27;0.27;;;;;;;;;;5299797;26;20291;-85
2024/04/17 00:09:27;;;;;;;0.77;0.47;;;;;;;;;;5329243;26;20248;-86
2024/04/17 00:11:53;;;;;;;0.20;0.20;;;;;;;;;;5359293;26;20314;-85
2024/04/17 00:14:20;;;;;;;0.30;0.30;;;;;;;;;;5326006;26;20256;-90
2024/04/17 00:16:46;;;;;;;0.70;0.70;;;;;;;;;;5296862;26;20275;-85
2024/04/17 00:19:12;;;;;;;0.20;0.20;;;;;;;;;;5354028;26;20277;-83
2024/04/17 00:21:38;;;;;;;0.20;0.20;;;;;;;;;;5300236;26;20300;-86
2024/04/17 00:24:04;;;;;;;0.40;0.40;;;;;;;;;;5326615;26;20249;-83
2024/04/17 00:26:30;;;;;;;0.30;0.30;;;;;;;;;;5330777;26;21252;-84
2024/04/17 00:28:56;;;;;;;0.43;0.43;;;;;;;;;;5295955;26;21503;-85
2024/04/17 00:31:22;;;;;;;0.53;0.50;;;;;;;;;;5353923;26;20298;-83
2024/04/17 00:33:48;;;;;;;10.80;0.67;;;;;;;;;;5358126;26;20291;-84
2024/04/17 00:36:14;;;;;;;0.20;0.20;;;;;;;;;;5324455;26;20248;-83
2024/04/17 00:38:41;;;;;;;0.40;0.40;;;;;;;;;;5284023;27;20262;-85
2024/04/17 00:41:09;;;;;;;0.20;0.20;;;;;;;;;;5255901;27;21404;-85
2024/04/17 00:43:35;;;;;;;0.47;0.47;;;;;;;;;;5210217;27;20271;-88
2024/04/17 00:46:01;;;;;;;0.30;0.30;;;;;;;;;;5229987;27;20305;-86
2024/04/17 00:48:27;;;;;;;0.20;0.20;;;;;;;;;;5206294;27;20243;-85
2024/04/17 00:50:54;;;;;;;0.30;0.30;;;;;;;;;;5244123;27;20305;-87
2024/04/17 00:53:28;;;;;;;0.30;0.30;;;;;;;;;;5230888;27;20264;-86
2024/04/17 00:55:56;;;;;;;0.20;0.20;;;;;;;;;;5242997;27;20298;-88
2024/04/17 00:58:22;;;;;;;0.40;0.40;;;;;;;;;;5214199;27;20262;-86
2024/04/17 01:00:48;;;;;;;0.20;0.20;;;;;;;;;;5196598;27;20244;-85
2024/04/17 01:03:14;;;;;;;0.30;0.30;;;;;;;;;;5192297;27;20238;-89
2024/04/17 01:05:40;;;;;;;0.30;0.30;;;;;;;;;;5167691;27;20316;-85
2024/04/17 01:08:07;;;;;;;0.20;0.20;;;;;;;;;;5164236;27;20269;-86
2024/04/17 01:10:33;;;;;;;0.13;0.13;;;;;;;;;;5253628;26;21113;-85
2024/04/17 01:12:59;;;;;;;0.30;0.30;;;;;;;;;;5267103;26;20269;-85
2024/04/17 01:15:26;;;;;;;0.30;0.30;;;;;;;;;;5267263;26;20245;-86
2024/04/17 01:17:52;;;;;;;0.30;0.30;;;;;;;;;;5292121;26;20321;-87
2024/04/17 01:20:18;;;;;;;0.20;0.20;;;;;;;;;;5291692;26;20262;-86
2024/04/17 01:22:44;;;;;;;0.20;0.20;;;;;;;;;;5294724;26;20300;-86
2024/04/17 01:25:11;;;;;;;0.20;0.20;;;;;;;;;;5264387;26;20329;-84
2024/04/17 01:27:40;;;;;;;0.77;0.73;;;;;;;;;;5264000;26;20327;-88
2024/04/17 01:30:07;;;;;;;0.20;0.20;;;;;;;;;;5264110;26;20429;-84
2024/04/17 01:32:33;;;;;;;0.33;0.33;;;;;;;;;;5322462;26;20256;-85
2024/04/17 01:34:59;;;;;;;0.27;0.27;;;;;;;;;;5332038;26;20262;-86
2024/04/17 01:37:25;;;;;;;0.30;0.30;;;;;;;;;;5333697;26;20731;-87
2024/04/17 01:39:51;;;;;;;0.27;0.27;;;;;;;;;;5359926;26;20259;-86
2024/04/17 01:42:18;;;;;;;0.30;0.30;;;;;;;;;;5345910;26;20247;-86
2024/04/17 01:44:44;;;;;;;0.60;0.60;;;;;;;;;;5325444;26;20269;-87
2024/04/17 01:47:10;;;;;;;0.10;0.10;;;;;;;;;;5295932;26;20306;-87
2024/04/17 01:49:36;;;;;;;0.60;0.60;;;;;;;;;;5321413;26;20673;-88
2024/04/17 01:52:02;;;;;;;0.20;0.20;;;;;;;;;;5325636;26;20268;-89
2024/04/17 01:54:28;;;;;;;0.17;0.17;;;;;;;;;;5297650;26;20267;-86
2024/04/17 01:56:54;;;;;;;0.20;0.20;;;;;;;;;;5325118;26;20265;-85
2024/04/17 01:59:20;;;;;;;0.20;0.20;;;;;;;;;;5320377;26;20276;-89
2024/04/17 02:01:46;;;;;;;0.20;0.20;;;;;;;;;;5322186;26;20269;-85
2024/04/17 02:04:12;;;;;;;0.40;0.40;;;;;;;;;;5358071;26;20366;-87
2024/04/17 02:06:39;;;;;;;0.43;0.43;;;;;;;;;;5297915;26;20355;-87
2024/04/17 02:09:05;;;;;;;0.10;0.10;;;;;;;;;;5288179;27;20291;-88
2024/04/17 02:11:31;;;;;;;0.10;0.10;;;;;;;;;;5286807;27;20362;-88
2024/04/17 02:13:57;;;;;;;0.20;0.20;;;;;;;;;;5230879;27;20405;-87
2024/04/17 02:16:23;;;;;;;0.40;0.40;;;;;;;;;;5281337;27;20267;-88
2024/04/17 02:18:49;;;;;;;14.23;0.60;;;;;;;;;;5202193;27;20243;-88
2024/04/17 02:21:15;;;;;;;0.47;0.47;;;;;;;;;;5229214;27;20403;-87
2024/04/17 02:23:41;;;;;;;0.20;0.20;;;;;;;;;;5227433;27;20300;-87
2024/04/17 02:26:07;;;;;;;1.40;0.93;;;;;;;;;;5195497;27;20272;-87
2024/04/17 02:28:33;;;;;;;2.70;2.50;;;;;;;;;;5236750;27;20258;-86
2024/04/17 02:30:59;;;;;;;0.20;0.20;;;;;;;;;;5216288;27;20300;-88
2024/04/17 02:33:26;;;;;;;0.20;0.20;;;;;;;;;;5264632;27;20277;-86
2024/04/17 02:35:52;;;;;;;0.40;0.40;;;;;;;;;;5182855;27;20263;-87
2024/04/17 02:38:18;;;;;;;0.70;0.70;;;;;;;;;;5236961;27;20782;-87
2024/04/17 02:40:44;;;;;;;1.13;0.73;;;;;;;;;;5255503;26;20295;-87
2024/04/17 02:43:10;;;;;;;0.60;0.60;;;;;;;;;;5249038;27;20266;-85
2024/04/17 02:45:36;;;;;;;0.30;0.30;;;;;;;;;;5251310;27;20247;-84
2024/04/17 02:48:02;;;;;;;0.30;0.30;;;;;;;;;;5255176;27;20531;-86
2024/04/17 02:50:28;;;;;;;2.47;0.50;;;;;;;;;;5236809;27;20267;-87
2024/04/17 02:52:56;;;;;;;0.20;0.20;;;;;;;;;;5237835;27;20336;-85
2024/04/17 02:55:22;;;;;;;0.20;0.20;;;;;;;;;;5271057;27;20300;-85
2024/04/17 02:57:49;;;;;;;0.57;0.57;;;;;;;;;;5275059;27;20280;-84
2024/04/17 03:00:17;;;;;;;0.20;0.20;;;;;;;;;;5276388;27;20250;-86
2024/04/17 03:02:43;;;;;;;0.20;0.20;;;;;;;;;;5237003;27;20266;-86
2024/04/17 03:05:09;;;;;;;0.13;0.13;;;;;;;;;;5308313;26;20260;-85
2024/04/17 03:07:35;;;;;;;0.10;0.10;;;;;;;;;;5286929;26;20294;-88
2024/04/17 03:10:02;;;;;;;0.30;0.30;;;;;;;;;;5332628;26;20268;-85
2024/04/17 03:12:28;;;;;;;0.80;0.77;;;;;;;;;;5309185;26;20235;-87
2024/04/17 03:14:55;;;;;;;0.60;0.60;;;;;;;;;;5331911;26;20787;-87
2024/04/17 03:17:21;;;;;;;0.10;0.10;;;;;;;;;;5307233;26;20291;-86
2024/04/17 03:19:47;;;;;;;0.20;0.20;;;;;;;;;;5333188;26;20303;-87
2024/04/17 03:22:13;;;;;;;0.20;0.20;;;;;;;;;;5303583;26;20275;-88
2024/04/17 03:24:39;;;;;;;0.37;0.37;;;;;;;;;;5303132;26;20303;-86
2024/04/17 03:27:05;;;;;;;0.47;0.47;;;;;;;;;;5329860;26;20248;-85
2024/04/17 03:29:31;;;;;;;0.60;0.60;;;;;;;;;;5329784;26;20273;-85
2024/04/17 03:32:00;;;;;;;0.33;0.33;;;;;;;;;;5329705;26;20272;-91
2024/04/17 03:34:26;;;;;;;0.30;0.30;;;;;;;;;;5360670;26;21130;-86
2024/04/17 03:36:52;;;;;;;6.63;0.60;;;;;;;;;;5300963;26;20693;-88
2024/04/17 03:39:18;;;;;;;0.20;0.20;;;;;;;;;;5360522;26;20248;-85
2024/04/17 03:41:46;;;;;;;0.43;0.43;;;;;;;;;;5330393;26;20263;-87
2024/04/17 03:44:13;;;;;;;0.20;0.20;;;;;;;;;;5330469;26;20360;-86
2024/04/17 03:46:39;;;;;;;0.27;0.27;;;;;;;;;;5361931;26;20765;-84
2024/04/17 03:49:05;;;;;;;0.70;0.33;;;;;;;;;;5361597;26;20299;-87
2024/04/17 03:51:32;;;;;;;0.97;0.40;;;;;;;;;;5331814;26;20378;-86
2024/04/17 03:53:58;;;;;;;1.80;1.27;;;;;;;;;;5303982;26;20298;-85
2024/04/17 03:56:24;;;;;;;0.20;0.20;;;;;;;;;;5334477;26;20367;-90
2024/04/17 03:58:50;;;;;;;0.07;0.07;;;;;;;;;;5332230;26;20280;-86
2024/04/17 04:01:16;;;;;;;0.20;0.20;;;;;;;;;;5330782;26;20377;-87
2024/04/17 04:03:42;;;;;;;0.20;0.20;;;;;;;;;;5328022;26;21100;-90
2024/04/17 04:06:08;;;;;;;0.20;0.20;;;;;;;;;;5362387;26;20275;-86
2024/04/17 04:08:37;;;;;;;0.40;0.40;;;;;;;;;;5338802;26;20807;-87
2024/04/17 04:11:03;;;;;;;0.40;0.40;;;;;;;;;;5328325;26;20375;-88
2024/04/17 04:13:29;;;;;;;0.20;0.20;;;;;;;;;;5328685;26;20366;-88
2024/04/17 04:15:55;;;;;;;0.20;0.20;;;;;;;;;;5296448;26;20245;-86
2024/04/17 04:18:21;;;;;;;0.30;0.30;;;;;;;;;;5305098;26;20245;-89
2024/04/17 04:20:48;;;;;;;0.13;0.13;;;;;;;;;;5326965;26;20315;-86
2024/04/17 04:23:14;;;;;;;14.73;1.37;;;;;;;;;;5326246;26;20264;-87
2024/04/17 04:25:41;;;;;;;0.60;0.60;;;;;;;;;;5328516;26;20274;-86
2024/04/17 04:28:08;;;;;;;0.30;0.30;;;;;;;;;;5357606;26;20364;-86
2024/04/17 04:30:39;;;;;;;0.30;0.30;;;;;;;;;;5328918;26;20328;-87
2024/04/17 04:33:05;;;;;;;0.63;0.50;;;;;;;;;;5355981;26;20245;-86
2024/04/17 04:35:32;;;;;;;0.30;0.30;;;;;;;;;;5341193;26;20304;-85
2024/04/17 04:37:58;;;;;;;0.60;0.60;;;;;;;;;;5358622;26;20325;-85
2024/04/17 04:40:24;;;;;;;1.00;1.00;;;;;;;;;;5328135;26;20331;-84
2024/04/17 04:42:50;;;;;;;2.23;1.40;;;;;;;;;;5356736;26;20242;-87
2024/04/17 04:45:16;;;;;;;0.27;0.27;;;;;;;;;;5300788;26;21078;-87
2024/04/17 04:47:42;;;;;;;0.40;0.27;;;;;;;;;;5331485;26;20280;-86
2024/04/17 04:50:08;;;;;;;0.57;0.57;;;;;;;;;;5354589;26;20369;-87
2024/04/17 04:52:34;;;;;;;0.20;0.20;;;;;;;;;;5324144;26;20307;-87
2024/04/17 04:55:00;;;;;;;0.20;0.20;;;;;;;;;;5351750;26;20265;-85
2024/04/17 04:57:26;;;;;;;0.20;0.20;;;;;;;;;;5328473;26;20248;-89
2024/04/17 04:59:53;;;;;;;0.27;0.27;;;;;;;;;;5354108;26;20265;-87
2024/04/17 05:02:19;;;;;;;2.67;0.50;;;;;;;;;;5320211;26;20292;-88
2024/04/17 05:04:45;;;;;;;0.20;0.20;;;;;;;;;;5293630;26;20977;-87
2024/04/17 05:07:11;;;;;;;0.30;0.30;;;;;;;;;;5295592;26;20359;-85
2024/04/17 05:09:37;;;;;;;0.20;0.20;;;;;;;;;;5353317;26;20295;-90
2024/04/17 05:12:03;;;;;;;0.20;0.20;;;;;;;;;;5328975;26;20816;-87
2024/04/17 05:14:29;;;;;;;0.17;0.17;;;;;;;;;;5336010;26;20257;-88
2024/04/17 05:16:55;;;;;;;0.20;0.20;;;;;;;;;;5323710;26;20267;-86
2024/04/17 05:19:21;;;;;;;0.53;0.40;;;;;;;;;;5299351;26;20260;-87
2024/04/17 05:21:47;;;;;;;0.20;0.20;;;;;;;;;;5329030;26;20335;-88
2024/04/17 05:24:13;;;;;;;0.30;0.30;;;;;;;;;;5356299;26;20871;-87
2024/04/17 05:26:39;;;;;;;0.57;0.57;;;;;;;;;;5325478;26;20342;-89
2024/04/17 05:29:08;;;;;;;0.40;0.40;;;;;;;;;;5300948;26;20324;-89
2024/04/17 05:31:34;;;;;;;0.63;0.50;;;;;;;;;;5324462;26;20924;-88
2024/04/17 05:34:00;;;;;;;0.30;0.30;;;;;;;;;;5325000;26;20268;-87
2024/04/17 05:36:27;;;;;;;1.60;1.50;;;;;;;;;;5299753;26;20249;-87
2024/04/17 05:38:53;;;;;;;0.20;0.20;;;;;;;;;;5322802;26;20741;-89
2024/04/17 05:41:19;;;;;;;0.20;0.20;;;;;;;;;;5324331;26;20281;-89
2024/04/17 05:43:48;;;;;;;2.53;1.17;;;;;;;;;;5324781;26;20257;-88
2024/04/17 05:46:14;;;;;;;0.67;0.67;;;;;;;;;;5327155;26;20290;-88
2024/04/17 05:48:40;;;;;;;0.20;0.20;;;;;;;;;;5326525;26;20236;-87
2024/04/17 05:51:06;;;;;;;2.00;1.90;;;;;;;;;;5358746;26;20263;-89
2024/04/17 05:53:32;;;;;;;3.80;2.40;;;;;;;;;;5339882;26;20295;-87
2024/04/17 05:55:59;;;;;;;0.20;0.20;;;;;;;;;;5352177;26;20306;-87
2024/04/17 05:58:25;;;;;;;0.43;0.43;;;;;;;;;;5297881;26;20346;-88
2024/04/17 06:00:51;;;;;;;0.20;0.20;;;;;;;;;;5322309;26;20252;-88
2024/04/17 06:03:17;;;;;;;0.40;0.40;;;;;;;;;;5339134;26;20256;-88
2024/04/17 06:05:46;;;;;;;0.20;0.20;;;;;;;;;;5327308;26;20324;-83
2024/04/17 06:08:15;;;;;;;0.30;0.30;;;;;;;;;;5349553;26;20310;-84
2024/04/17 06:10:41;;;;;;;1.17;0.70;;;;;;;;;;5286431;26;20288;-86
2024/04/17 06:13:07;;;;;;;17.20;1.90;;;;;;;;;;5261611;26;20264;-86
2024/04/17 06:15:35;;;;;;;0.30;0.30;;;;;;;;;;5261703;26;20406;-84
2024/04/17 06:18:06;;;;;;;0.20;0.20;;;;;;;;;;5223851;27;20725;-82
2024/04/17 06:20:32;;;;;;;0.53;0.53;;;;;;;;;;5228693;27;20346;-85
2024/04/17 06:22:58;;;;;;;0.33;0.33;;;;;;;;;;5252138;27;20331;-81
2024/04/17 06:25:24;;;;;;;0.20;0.20;;;;;;;;;;5280783;26;20394;-83
2024/04/17 06:27:51;;;;;;;0.70;0.23;;;;;;;;;;5226581;27;20281;-82
2024/04/17 06:30:18;;;;;;;1.03;0.83;;;;;;;;;;5220206;27;20243;-82
2024/04/17 06:32:44;;;;;;;1.67;0.97;;;;;;;;;;5282919;27;20266;-84
2024/04/17 06:35:11;;;;;;;0.20;0.20;;;;;;;;;;5225352;27;20363;-83
2024/04/17 06:37:37;;;;;;;3.50;0.83;;;;;;;;;;5224459;27;20786;-83
2024/04/17 06:40:03;;;;;;;0.47;0.40;;;;;;;;;;5264922;26;20318;-82
2024/04/17 06:42:29;;;;;;;0.10;0.10;;;;;;;;;;5312213;26;20430;-84
2024/04/17 06:44:55;;;;;;;0.17;0.17;;;;;;;;;;5302241;26;20296;-81
2024/04/17 06:47:21;;;;;;;0.10;0.10;;;;;;;;;;5356924;26;20263;-84
2024/04/17 06:49:48;;;;;;;1.43;0.77;;;;;;;;;;5360197;26;21067;-82
2024/04/17 06:52:14;;;;;;;0.13;0.13;;;;;;;;;;5341892;26;20306;-83
2024/04/17 06:54:40;;;;;;;0.67;0.67;;;;;;;;;;5327557;26;20248;-81
2024/04/17 06:57:06;;;;;;;0.47;0.47;;;;;;;;;;5374293;26;20372;-84
2024/04/17 06:59:32;;;;;;;0.37;0.27;;;;;;;;;;5277496;26;20311;-82
2024/04/17 07:01:58;;;;;;;0.63;0.20;;;;;;;;;;5311676;26;20306;-82
2024/04/17 07:04:24;;;;;;;0.30;0.30;;;;;;;;;;5325176;26;20327;-82
2024/04/17 07:06:50;;;;;;;0.20;0.20;;;;;;;;;;5292310;26;20295;-83
2024/04/17 07:09:16;;;;;;;0.80;0.80;;;;;;;;;;5323431;26;20303;-83
2024/04/17 07:11:42;;;;;;;0.50;0.43;;;;;;;;;;5323077;26;20268;-85
2024/04/17 07:14:09;;;;;;;1.27;0.50;;;;;;;;;;5296315;26;20273;-86
2024/04/17 07:16:35;;;;;;;2.13;0.40;;;;;;;;;;5325419;26;20791;-86
2024/04/17 07:19:01;;;;;;;0.13;0.13;;;;;;;;;;5292143;26;20263;-86
2024/04/17 07:21:27;;;;;;;0.30;0.30;;;;;;;;;;5322549;26;20806;-85
2024/04/17 07:23:53;;;;;;;0.23;0.23;;;;;;;;;;5322032;26;20276;-84
2024/04/17 07:26:19;;;;;;;0.73;0.73;;;;;;;;;;5322602;26;20327;-86
2024/04/17 07:28:46;;;;;;;0.70;0.70;;;;;;;;;;5324221;26;20358;-85
2024/04/17 07:31:12;;;;;;;0.33;0.33;;;;;;;;;;5300306;26;20597;-85
2024/04/17 07:33:38;;;;;;;0.73;0.53;;;;;;;;;;5293621;26;20289;-84
2024/04/17 07:36:04;;;;;;;0.20;0.20;;;;;;;;;;5355143;26;20326;-85
2024/04/17 07:38:30;;;;;;;2.00;0.40;;;;;;;;;;5300416;26;20268;-85
2024/04/17 07:40:57;;;;;;;7.83;0.60;;;;;;;;;;5352630;26;20307;-85
2024/04/17 07:43:27;;;;;;;0.17;0.17;;;;;;;;;;5300442;26;20268;-85
2024/04/17 07:45:54;;;;;;;0.30;0.30;;;;;;;;;;5323140;26;20242;-84
2024/04/17 07:48:20;;;;;;;0.30;0.30;;;;;;;;;;5264323;26;20639;-85
2024/04/17 07:50:46;;;;;;;0.10;0.10;;;;;;;;;;5214574;27;20369;-86
2024/04/17 07:53:12;;;;;;;0.73;0.40;;;;;;;;;;5210107;27;20270;-84
2024/04/17 07:55:39;;;;;;;0.23;0.23;;;;;;;;;;5270986;26;20283;-85
2024/04/17 07:58:05;;;;;;;0.80;0.80;;;;;;;;;;5264154;26;20314;-86
2024/04/17 08:00:32;;;;;;;0.10;0.10;;;;;;;;;;5265247;26;20246;-85
2024/04/17 08:03:00;;;;;;;0.83;0.40;;;;;;;;;;5264362;26;20320;-86
2024/04/17 08:05:28;;;;;;;0.27;0.27;;;;;;;;;;5245305;26;20261;-84
2024/04/17 08:07:54;;;;;;;2.27;0.60;;;;;;;;;;5261564;26;20261;-85
2024/04/17 08:10:20;;;;;;;6.43;0.77;;;;;;;;;;5265209;26;20257;-85
2024/04/17 08:12:47;;;;;;;0.40;0.40;;;;;;;;;;5261665;26;20257;-85
2024/04/17 08:15:15;;;;;;;2.37;0.63;;;;;;;;;;5284894;26;20249;-86
2024/04/17 08:17:44;;;;;;;0.30;0.30;;;;;;;;;;5321640;26;20385;-87
2024/04/17 08:20:10;;;;;;;0.80;0.50;;;;;;;;;;5297994;26;20260;-85
2024/04/17 08:22:39;;;;;;;0.53;0.37;;;;;;;;;;5332382;26;20268;-86
2024/04/17 08:25:05;;;;;;;0.30;0.27;;;;;;;;;;5328454;26;20275;-85
2024/04/17 08:27:31;;;;;;;1.23;0.67;;;;;;;;;;5357968;26;20692;-85
2024/04/17 08:29:58;;;;;;;0.23;0.23;;;;;;;;;;5325293;26;20316;-85
2024/04/17 08:32:24;;;;;;;0.67;0.53;;;;;;;;;;5325632;26;20257;-85
2024/04/17 08:34:50;;;;;;;0.60;0.60;;;;;;;;;;5325995;26;20264;-85
2024/04/17 08:37:18;;;;;;;0.30;0.30;;;;;;;;;;5299500;26;20318;-85
2024/04/17 08:39:44;;;;;;;0.27;0.27;;;;;;;;;;5310247;26;20287;-86
2024/04/17 08:42:15;;;;;;;0.20;0.20;;;;;;;;;;5339760;26;20253;-85
2024/04/17 08:44:41;;;;;;;0.40;0.40;;;;;;;;;;5332294;26;20299;-86
2024/04/17 08:47:07;;;;;;;0.20;0.20;;;;;;;;;;5322572;26;20357;-84
2024/04/17 08:49:34;;;;;;;0.20;0.20;;;;;;;;;;5325897;26;20279;-85
2024/04/17 08:52:04;;;;;;;2.33;0.47;;;;;;;;;;5327915;26;20265;-85
2024/04/17 08:54:30;;;;;;;0.20;0.20;;;;;;;;;;5291325;26;20346;-87
2024/04/17 08:56:57;;;;;;;0.63;0.63;;;;;;;;;;5276866;26;20335;-86
2024/04/17 08:59:23;;;;;;;0.57;0.40;;;;;;;;;;5290005;26;20304;-84
2024/04/17 09:01:50;;;;;;;0.27;0.27;;;;;;;;;;5233966;26;20274;-84
2024/04/17 09:04:17;;;;;;;0.20;0.20;;;;;;;;;;5246776;26;20367;-84
2024/04/17 09:06:43;;;;;;;1.57;0.47;;;;;;;;;;5260194;26;20276;-83
2024/04/17 09:09:12;;;;;;;0.20;0.20;;;;;;;;;;5265063;26;20234;-85
2024/04/17 09:11:39;;;;;;;0.20;0.20;;;;;;;;;;5260614;26;20305;-84
2024/04/17 09:14:05;;;;;;;0.30;0.30;;;;;;;;;;5261844;26;20353;-83
2024/04/17 09:16:31;;;;;;;0.30;0.30;;;;;;;;;;5235125;26;20257;-84
2024/04/17 09:18:57;;;;;;;0.20;0.20;;;;;;;;;;5234707;26;20254;-86
2024/04/17 09:21:23;;;;;;;0.33;0.33;;;;;;;;;;5262875;26;20247;-83
2024/04/17 09:23:49;;;;;;;4.43;0.40;;;;;;;;;;5290662;26;20266;-85
2024/04/17 09:26:17;;;;;;;0.20;0.20;;;;;;;;;;5311469;26;20604;-85
2024/04/17 09:28:43;;;;;;;0.30;0.23;;;;;;;;;;5334711;26;20280;-86
2024/04/17 09:31:10;;;;;;;0.17;0.17;;;;;;;;;;5324677;26;20713;-84
2024/04/17 09:33:44;;;;;;;0.30;0.27;;;;;;;;;;5353643;26;20288;-84
2024/04/17 09:36:10;;;;;;;0.20;0.20;;;;;;;;;;5296649;26;20244;-83
2024/04/17 09:38:36;;;;;;;0.10;0.10;;;;;;;;;;5295805;26;20776;-84
2024/04/17 09:41:02;;;;;;;0.87;0.40;;;;;;;;;;5320057;26;20602;-85
2024/04/17 09:43:29;;;;;;;0.20;0.20;;;;;;;;;;5344492;26;20260;-84
2024/04/17 09:46:02;;;;;;;0.40;0.40;;;;;;;;;;5324779;26;20245;-83
2024/04/17 09:48:29;;;;;;;0.20;0.20;;;;;;;;;;5325939;26;20249;-83
2024/04/17 09:51:03;;;;;;;0.73;0.47;;;;;;;;;;5326191;26;20341;-84
2024/04/17 09:53:36;;;;;;;3.07;1.00;;;;;;;;;;5282472;26;20317;-85
2024/04/17 09:56:04;;;;;;;0.33;0.33;;;;;;;;;;5210485;26;20320;-83
2024/04/17 09:58:34;;;;;;;3.87;0.57;;;;;;;;;;5228235;26;20301;-83
2024/04/17 10:01:09;;;;;;;0.20;0.20;;;;;;;;;;5231809;27;20269;-83
2024/04/17 10:03:38;;;;;;;0.53;0.30;;;;;;;;;;5239418;27;20726;-84
2024/04/17 10:06:05;;;;;;;0.40;0.40;;;;;;;;;;5251315;27;20246;-83
2024/04/17 10:08:32;;;;;;;2.10;0.30;;;;;;;;;;5255848;27;20292;-82
2024/04/17 10:10:59;;;;;;;3.10;0.47;;;;;;;;;;5257772;26;20296;-83
2024/04/17 10:13:25;;;;;;;3.80;0.27;;;;;;;;;;5255927;27;20266;-84
2024/04/17 10:15:52;;;;;;;0.53;0.53;;;;;;;;;;5256941;26;20290;-82
2024/04/17 10:18:18;;;;;;;0.73;0.30;;;;;;;;;;5256281;27;20281;-84
2024/04/17 10:20:45;;;;;;;1.83;0.53;;;;;;;;;;5226671;27;20283;-83
2024/04/17 10:23:13;;;;;;;0.77;0.50;;;;;;;;;;5227853;27;20278;-82
2024/04/17 10:25:54;;;;;;;0.27;0.27;;;;;;;;;;5356916;26;20336;-83
2024/04/17 10:28:21;;;;;;;0.30;0.30;;;;;;;;;;5320192;26;20265;-82
2024/04/17 10:30:50;;;;;;;0.20;0.20;;;;;;;;;;5342553;26;20810;-83
2024/04/17 10:33:29;;;;;;;1.27;1.17;;;;;;;;;;5353859;26;20296;-83
2024/04/17 10:35:56;;;;;;;0.93;0.40;;;;;;;;;;5326269;26;20829;-83
2024/04/17 10:38:29;;;;;;;0.30;0.30;;;;;;;;;;5349194;26;20273;-83
2024/04/17 10:40:56;;;;;;;0.60;0.27;;;;;;;;;;5324311;26;20268;-81
2024/04/17 10:43:23;;;;;;;0.23;0.23;;;;;;;;;;5322685;26;20268;-84
2024/04/17 10:45:56;;;;;;;4.60;0.30;;;;;;;;;;5320630;26;20295;-82
2024/04/17 10:48:22;;;;;;;3.30;0.30;;;;;;;;;;5323237;26;20263;-82
2024/04/17 10:50:50;;;;;;;2.07;0.40;;;;;;;;;;5294784;26;20732;-82
2024/04/17 10:53:19;;;;;;;0.30;0.30;;;;;;;;;;5323756;26;20306;-83
2024/04/17 10:55:45;;;;;;;0.23;0.23;;;;;;;;;;5324977;26;20837;-84
2024/04/17 10:58:13;;;;;;;0.20;0.20;;;;;;;;;;5351605;26;20354;-83
2024/04/17 11:00:39;;;;;;;1.57;0.50;;;;;;;;;;5321209;26;20299;-82
2024/04/17 11:03:06;;;;;;;1.30;0.63;;;;;;;;;;5350618;26;20248;-84
2024/04/17 11:05:32;;;;;;;1.13;0.60;;;;;;;;;;5321840;26;20269;-83
2024/04/17 11:07:58;;;;;;;0.50;0.50;;;;;;;;;;5352734;26;21012;-83
2024/04/17 11:10:25;;;;;;;0.20;0.20;;;;;;;;;;5298871;26;20268;-83
2024/04/17 11:12:51;;;;;;;0.33;0.33;;;;;;;;;;5318634;26;20245;-84
2024/04/17 11:15:17;;;;;;;0.13;0.13;;;;;;;;;;5348295;26;20283;-85
2024/04/17 11:17:43;;;;;;;0.23;0.23;;;;;;;;;;5351359;26;20306;-85
2024/04/17 11:20:10;;;;;;;4.00;1.60;;;;;;;;;;5359320;26;20361;-84
2024/04/17 11:22:36;;;;;;;1.07;0.67;;;;;;;;;;5324057;26;20310;-83
2024/04/17 11:25:04;;;;;;;0.30;0.30;;;;;;;;;;5323756;26;20264;-85
2024/04/17 11:27:30;;;;;;;0.40;0.33;;;;;;;;;;5329776;26;20264;-85
2024/04/17 11:29:57;;;;;;;0.77;0.77;;;;;;;;;;5355598;26;20311;-87
2024/04/17 11:32:24;;;;;;;0.77;0.73;;;;;;;;;;5333163;26;20616;-87
2024/04/17 11:34:51;;;;;;;0.20;0.20;;;;;;;;;;5330952;26;20306;-87
2024/04/17 11:37:17;;;;;;;0.20;0.20;;;;;;;;;;5326904;26;20313;-87
2024/04/17 11:39:43;;;;;;;0.20;0.20;;;;;;;;;;5303714;26;20253;-86
2024/04/17 11:42:11;;;;;;;1.13;0.97;;;;;;;;;;5373781;26;20731;-88
2024/04/17 11:44:41;;;;;;;0.37;0.37;;;;;;;;;;5368255;26;20264;-87
2024/04/17 11:47:11;;;;;;;0.63;0.50;;;;;;;;;;5369638;26;20263;-86
2024/04/17 11:49:38;;;;;;;0.40;0.40;;;;;;;;;;5326990;26;20296;-85
2024/04/17 11:52:12;;;;;;;0.23;0.23;;;;;;;;;;5326511;26;20710;-86
2024/04/17 11:54:38;;;;;;;2.73;0.40;;;;;;;;;;5327134;26;20307;-86
2024/04/17 11:57:06;;;;;;;0.30;0.30;;;;;;;;;;5360475;26;20724;-85
2024/04/17 11:59:32;;;;;;;0.20;0.20;;;;;;;;;;5356503;26;20277;-87
2024/04/17 12:01:58;;;;;;;0.30;0.30;;;;;;;;;;5300060;26;20302;-85
2024/04/17 12:04:27;;;;;;;1.00;0.50;;;;;;;;;;5302418;26;20268;-85
2024/04/17 12:06:53;;;;;;;4.40;0.87;;;;;;;;;;5297862;26;20291;-85
2024/04/17 12:09:20;;;;;;;0.37;0.37;;;;;;;;;;5326275;26;20294;-85
2024/04/17 12:11:46;;;;;;;0.20;0.20;;;;;;;;;;5300000;26;20361;-87
2024/04/17 12:14:13;;;;;;;0.20;0.20;;;;;;;;;;5329572;26;20395;-86
2024/04/17 12:16:40;;;;;;;0.97;0.40;;;;;;;;;;5324259;26;20268;-85
2024/04/17 12:19:06;;;;;;;0.30;0.30;;;;;;;;;;5329610;26;20306;-85
2024/04/17 12:21:32;;;;;;;0.23;0.23;;;;;;;;;;5359636;26;20248;-87
2024/04/17 12:24:02;;;;;;;0.30;0.30;;;;;;;;;;5352524;26;20276;-84
2024/04/17 12:29:12;;;;;;;0.30;0.30;;;;;;;;;;5256683;27;20301;-84
2024/04/17 12:31:38;;;;;;;0.40;0.20;;;;;;;;;;5247760;27;20300;-85
2024/04/17 12:34:05;;;;;;;0.10;0.10;;;;;;;;;;5229401;27;20372;-85
2024/04/17 12:36:31;;;;;;;0.10;0.10;;;;;;;;;;5256259;27;20242;-86
2024/04/17 12:38:57;;;;;;;0.17;0.17;;;;;;;;;;5236231;27;20323;-87
2024/04/17 12:41:26;;;;;;;0.13;0.13;;;;;;;;;;5171052;27;20264;-85
2024/04/17 12:43:52;;;;;;;0.10;0.10;;;;;;;;;;5204448;27;20260;-85
2024/04/17 12:46:18;;;;;;;0.20;0.20;;;;;;;;;;5217561;27;20718;-85
2024/04/17 12:48:45;;;;;;;0.20;0.20;;;;;;;;;;5194499;27;20247;-86
2024/04/17 12:51:12;;;;;;;0.87;0.20;;;;;;;;;;5157215;27;20288;-86
2024/04/17 12:53:38;;;;;;;0.20;0.20;;;;;;;;;;5157727;27;20810;-86
2024/04/17 12:56:04;;;;;;;0.20;0.20;;;;;;;;;;5151913;27;20266;-86
2024/04/17 12:58:30;;;;;;;0.17;0.17;;;;;;;;;;5168563;27;20265;-84
2024/04/17 13:00:56;;;;;;;0.10;0.10;;;;;;;;;;5192365;27;20341;-87
2024/04/17 13:03:22;;;;;;;1.70;0.30;;;;;;;;;;5177168;27;20241;-88
2024/04/17 13:05:48;;;;;;;0.23;0.20;;;;;;;;;;5145899;27;20300;-89
2024/04/17 13:08:14;;;;;;;0.63;0.30;;;;;;;;;;5195767;27;20260;-89
2024/04/17 13:10:40;;;;;;;0.30;0.30;;;;;;;;;;5211507;27;20268;-88
2024/04/17 13:13:07;;;;;;;0.23;0.23;;;;;;;;;;5219823;27;20275;-88
2024/04/17 13:15:33;;;;;;;0.30;0.30;;;;;;;;;;5224196;27;20244;-86
2024/04/17 13:17:59;;;;;;;0.20;0.20;;;;;;;;;;5222657;27;20689;-85
2024/04/17 13:20:25;;;;;;;0.20;0.20;;;;;;;;;;5195935;27;20359;-89
2024/04/17 13:22:51;;;;;;;0.30;0.30;;;;;;;;;;5221895;27;20306;-90
2024/04/17 13:25:17;;;;;;;0.10;0.10;;;;;;;;;;5219706;27;20260;-85
2024/04/17 13:27:43;;;;;;;0.20;0.20;;;;;;;;;;5181473;27;20267;-87
2024/04/17 13:30:09;;;;;;;0.17;0.17;;;;;;;;;;5256976;27;20254;-87
2024/04/17 13:32:35;;;;;;;0.23;0.23;;;;;;;;;;5285459;26;20321;-87
2024/04/17 13:35:04;;;;;;;0.27;0.27;;;;;;;;;;5274025;26;20366;-85
2024/04/17 13:37:31;;;;;;;1.70;0.73;;;;;;;;;;5289867;26;20270;-88
2024/04/17 13:39:59;;;;;;;0.23;0.23;;;;;;;;;;5259548;26;20279;-86
2024/04/17 13:42:28;;;;;;;0.20;0.20;;;;;;;;;;5234555;27;20235;-85
2024/04/17 13:44:54;;;;;;;0.17;0.17;;;;;;;;;;5285378;26;20270;-92
2024/04/17 13:47:20;;;;;;;0.27;0.27;;;;;;;;;;5284808;26;20366;-89
2024/04/17 13:49:46;;;;;;;0.30;0.30;;;;;;;;;;5274571;27;20267;-88
2024/04/17 13:52:12;;;;;;;0.20;0.20;;;;;;;;;;5237904;26;20303;-89
2024/04/17 13:54:38;;;;;;;0.10;0.10;;;;;;;;;;5272906;26;20245;-87
2024/04/17 13:57:05;;;;;;;0.20;0.20;;;;;;;;;;5295445;26;20238;-89
2024/04/17 13:59:31;;;;;;;0.30;0.30;;;;;;;;;;5287775;26;20299;-94
2024/04/17 14:01:57;;;;;;;0.10;0.10;;;;;;;;;;5325492;26;20264;-88
2024/04/17 14:04:23;;;;;;;0.17;0.17;;;;;;;;;;5354857;26;21133;-89
2024/04/17 14:06:51;;;;;;;0.20;0.20;;;;;;;;;;5325652;26;20246;-88
2024/04/17 14:09:17;;;;;;;0.10;0.10;;;;;;;;;;5327186;26;20287;-86
2024/04/17 14:11:43;;;;;;;0.70;0.40;;;;;;;;;;5328439;26;20790;-90
2024/04/17 14:14:10;;;;;;;0.20;0.20;;;;;;;;;;5300492;26;20265;-87
2024/04/17 14:16:36;;;;;;;0.13;0.13;;;;;;;;;;5327727;26;20276;-91
2024/04/17 14:19:02;;;;;;;0.30;0.20;;;;;;;;;;5303004;26;20291;-89
2024/04/17 14:21:28;;;;;;;0.17;0.17;;;;;;;;;;5330690;26;20755;-86
2024/04/17 14:23:54;;;;;;;0.20;0.20;;;;;;;;;;5325954;26;20264;-88
2024/04/17 14:26:24;;;;;;;0.20;0.20;;;;;;;;;;5352706;26;21559;-87
2024/04/17 14:28:50;;;;;;;0.20;0.20;;;;;;;;;;5326285;26;20404;-88
2024/04/17 14:31:17;;;;;;;0.30;0.30;;;;;;;;;;5325936;26;20285;-90
2024/04/17 14:33:43;;;;;;;0.30;0.30;;;;;;;;;;5353661;26;20237;-90
2024/04/17 14:36:09;;;;;;;0.20;0.20;;;;;;;;;;5332841;26;20249;-89
2024/04/17 14:38:38;;;;;;;0.20;0.20;;;;;;;;;;5326835;26;20346;-88
2024/04/17 14:41:04;;;;;;;0.17;0.17;;;;;;;;;;5297361;26;20729;-88
2024/04/17 14:43:31;;;;;;;0.23;0.23;;;;;;;;;;5297056;26;20313;-86